Time;durP1;ratioP1;P1;durP2;ratioP2;P2;SDS_P1;SDS_P2;PMS_P1;PMS_P2;Temp;Humidity;BMP_temperature;BMP_pressure;BME280_temperature;BME280_humidity;BME280_pressure;Samples;Min_cycle;Max_cycle;Signal;HPM_P1;HPM_P2
2023/10/06 00:00:53;;;;;;;5.50;4.07;;;10.90;99.90;;;;;;5069106;28;20266;-87
2023/10/06 00:03:20;;;;;;;11.27;5.13;;;10.70;99.90;;;;;;5065609;28;20557;-87
2023/10/06 00:05:48;;;;;;;6.53;4.50;;;11.00;99.90;;;;;;5064638;28;20266;-87
2023/10/06 00:08:17;;;;;;;8.75;4.35;;;11.10;99.90;;;;;;5065242;28;20555;-87
2023/10/06 00:10:50;;;;;;;6.45;4.55;;;10.40;99.90;;;;;;5063856;28;20237;-87
2023/10/06 00:13:19;;;;;;;7.97;5.20;;;11.00;99.90;;;;;;5075559;28;20628;-87
2023/10/06 00:15:45;;;;;;;8.20;4.63;;;10.60;99.90;;;;;;5066157;28;20202;-87
2023/10/06 00:18:23;;;;;;;7.65;4.85;;;10.60;99.90;;;;;;5062559;28;20200;-87
2023/10/06 00:20:49;;;;;;;8.45;4.63;;;10.60;99.90;;;;;;5061098;28;20187;-87
2023/10/06 00:23:22;;;;;;;7.35;4.90;;;11.00;99.90;;;;;;5055951;28;20210;-87
2023/10/06 00:25:52;;;;;;;6.00;4.30;;;11.00;99.90;;;;;;5072368;28;20308;-87
2023/10/06 00:28:27;;;;;;;4.93;4.28;;;11.00;99.90;;;;;;5060902;28;20182;-87
2023/10/06 00:30:57;;;;;;;7.13;4.45;;;10.40;99.90;;;;;;5058096;28;20616;-87
2023/10/06 00:33:32;;;;;;;7.68;4.55;;;11.00;99.90;;;;;;5064026;28;20249;-87
2023/10/06 00:36:11;;;;;;;6.30;4.00;;;10.40;99.90;;;;;;5066420;28;20236;-87
2023/10/06 00:38:42;;;;;;;6.78;4.50;;;10.40;99.90;;;;;;5064913;28;20568;-87
2023/10/06 00:41:08;;;;;;;10.25;4.57;;;10.60;99.90;;;;;;5063800;28;20213;-87
2023/10/06 00:43:36;;;;;;;5.30;4.27;;;10.40;99.90;;;;;;5060365;28;20212;-87
2023/10/06 00:46:08;;;;;;;7.85;4.38;;;10.60;99.90;;;;;;5072818;28;20249;-87
2023/10/06 00:48:42;;;;;;;6.60;4.57;;;10.40;99.90;;;;;;5063800;28;20223;-87
2023/10/06 00:51:15;;;;;;;8.40;4.45;;;10.40;99.90;;;;;;5065474;28;20551;-87
2023/10/06 00:53:42;;;;;;;6.95;4.13;;;10.80;99.90;;;;;;5064567;28;20214;-87
2023/10/06 00:56:11;;;;;;;7.90;4.45;;;10.30;99.90;;;;;;5062524;28;20191;-87
2023/10/06 00:58:41;;;;;;;6.38;4.63;;;10.60;99.90;;;;;;5067857;28;20290;-87
2023/10/06 01:01:21;;;;;;;6.65;4.45;;;10.20;99.90;;;;;;5067902;28;20190;-87
2023/10/06 01:04:00;;;;;;;7.57;4.80;;;10.70;99.90;;;;;;5065614;28;20564;-87
2023/10/06 01:06:33;;;;;;;7.53;4.22;;;9.70;99.90;;;;;;5063406;28;20210;-87
2023/10/06 01:09:12;;;;;;;7.18;5.10;;;9.80;99.90;;;;;;5067683;28;20181;-87
2023/10/06 01:11:43;;;;;;;6.28;4.55;;;10.10;99.90;;;;;;5068797;28;20721;-87
2023/10/06 01:14:09;;;;;;;5.72;3.97;;;9.70;99.90;;;;;;5061242;28;20202;-87
2023/10/06 01:16:35;;;;;;;6.10;5.07;;;10.30;99.90;;;;;;5064408;28;20191;-87
2023/10/06 01:19:14;;;;;;;5.03;4.33;;;10.30;99.90;;;;;;5075806;28;20227;-87
2023/10/06 01:21:47;;;;;;;7.65;4.72;;;10.20;99.90;;;;;;5063537;28;20191;-87
2023/10/06 01:24:23;;;;;;;7.05;4.95;;;10.10;99.90;;;;;;5065055;28;20188;-87
2023/10/06 01:26:49;;;;;;;7.32;4.03;;;9.90;99.90;;;;;;5066634;28;20693;-87
2023/10/06 01:29:14;;;;;;;7.43;5.67;;;10.20;99.90;;;;;;5061127;28;20193;-87
2023/10/06 01:31:41;;;;;;;5.47;4.37;;;10.30;99.90;;;;;;5064427;28;20184;-87
2023/10/06 01:34:08;;;;;;;6.72;4.28;;;10.40;99.90;;;;;;5065910;28;20703;-87
2023/10/06 01:36:37;;;;;;;8.38;4.70;;;10.20;99.90;;;;;;5065834;28;20565;-87
2023/10/06 01:39:05;;;;;;;9.52;5.60;;;10.50;99.90;;;;;;5067142;28;20211;-87
2023/10/06 01:41:36;;;;;;;9.45;5.40;;;10.40;99.90;;;;;;5062670;28;20184;-87
2023/10/06 01:44:12;;;;;;;7.53;5.20;;;9.70;99.90;;;;;;5057268;28;20199;-87
2023/10/06 01:46:38;;;;;;;7.47;4.53;;;10.20;99.90;;;;;;5060144;28;20187;-87
2023/10/06 01:49:04;;;;;;;6.10;4.72;;;9.90;99.90;;;;;;5060037;28;20231;-87
2023/10/06 01:51:38;;;;;;;6.68;5.15;;;10.50;99.90;;;;;;5064239;28;20190;-87
2023/10/06 01:54:11;;;;;;;11.05;4.97;;;10.20;99.90;;;;;;5065943;28;20211;-87
2023/10/06 01:56:42;;;;;;;8.43;4.55;;;10.30;99.90;;;;;;5066252;28;20191;-87
2023/10/06 01:59:10;;;;;;;5.80;4.55;;;10.30;99.90;;;;;;5061365;28;20575;-87
2023/10/06 02:01:39;;;;;;;6.38;4.22;;;10.30;99.90;;;;;;5064278;28;20178;-87
2023/10/06 02:04:08;;;;;;;5.20;4.53;;;10.10;99.90;;;;;;5066836;28;20212;-87
2023/10/06 02:06:33;;;;;;;10.40;5.00;;;10.40;99.90;;;;;;5060387;28;20191;-87
2023/10/06 02:09:05;;;;;;;10.13;5.30;;;10.10;99.90;;;;;;5061315;28;20179;-87
2023/10/06 02:11:32;;;;;;;6.82;4.88;;;10.00;99.90;;;;;;5062906;28;20200;-87
2023/10/06 02:13:57;;;;;;;6.95;4.70;;;10.50;99.90;;;;;;5062956;28;20201;-87
2023/10/06 02:16:26;;;;;;;4.70;4.03;;;10.00;99.90;;;;;;5055683;28;20556;-87
2023/10/06 02:18:54;;;;;;;7.70;4.65;;;9.90;99.90;;;;;;5064667;28;20305;-87
2023/10/06 02:21:24;;;;;;;5.45;4.20;;;9.80;99.90;;;;;;5064446;28;20188;-87
2023/10/06 02:23:58;;;;;;;6.13;4.35;;;10.40;99.90;;;;;;5074690;28;20218;-87
2023/10/06 02:26:24;;;;;;;6.18;4.25;;;10.40;99.90;;;;;;5086282;28;20205;-87
2023/10/06 02:28:50;;;;;;;9.13;4.70;;;10.00;99.90;;;;;;5086881;28;20254;-87
2023/10/06 02:31:16;;;;;;;6.00;4.27;;;10.30;99.90;;;;;;5069814;28;20190;-86
2023/10/06 02:33:47;;;;;;;6.95;5.00;;;9.90;99.90;;;;;;5060536;28;20488;-87
2023/10/06 02:36:17;;;;;;;6.70;4.63;;;9.90;99.90;;;;;;5064983;28;20190;-87
2023/10/06 02:38:46;;;;;;;6.28;4.50;;;10.00;99.90;;;;;;5063015;28;20665;-87
2023/10/06 02:41:18;;;;;;;7.22;5.15;;;10.10;99.90;;;;;;5065258;28;20183;-87
2023/10/06 02:43:54;;;;;;;6.85;4.82;;;10.30;99.90;;;;;;5080896;28;20206;-87
2023/10/06 02:46:21;;;;;;;7.82;4.30;;;9.90;99.90;;;;;;5056512;28;20190;-87
2023/10/06 02:48:51;;;;;;;7.53;4.65;;;9.90;99.90;;;;;;5059329;28;20250;-87
2023/10/06 02:51:32;;;;;;;6.50;4.75;;;9.90;99.90;;;;;;5063796;28;20214;-87
2023/10/06 02:54:21;;;;;;;6.70;4.32;;;9.80;99.90;;;;;;5083029;28;20201;-87
2023/10/06 02:56:50;;;;;;;5.65;4.85;;;9.50;99.90;;;;;;5083193;28;20221;-87
2023/10/06 02:59:24;;;;;;;8.48;4.82;;;10.20;99.90;;;;;;5068147;28;20309;-87
2023/10/06 03:02:00;;;;;;;10.45;5.20;;;10.00;99.90;;;;;;5067767;28;20193;-87
2023/10/06 03:04:27;;;;;;;7.80;4.60;;;10.00;99.90;;;;;;5080359;28;20201;-87
2023/10/06 03:06:57;;;;;;;9.98;5.00;;;9.70;99.90;;;;;;5071303;28;20228;-87
2023/10/06 03:09:38;;;;;;;7.93;4.65;;;10.10;99.90;;;;;;5062213;28;20190;-87
2023/10/06 03:12:26;;;;;;;5.07;4.35;;;9.20;99.90;;;;;;5063293;28;20579;-87
2023/10/06 03:14:56;;;;;;;6.10;4.32;;;9.30;99.90;;;;;;5067833;28;20202;-87
2023/10/06 03:17:23;;;;;;;7.45;5.10;;;9.20;99.90;;;;;;5066276;28;20195;-87
2023/10/06 03:22:38;;;;;;;7.65;4.78;;;9.60;99.90;;;;;;5063733;28;20993;-87
2023/10/06 03:25:14;;;;;;;6.70;4.65;;;9.20;99.90;;;;;;5056206;28;20201;-87
2023/10/06 03:27:42;;;;;;;7.95;5.60;;;9.50;99.90;;;;;;5063807;28;20225;-87
2023/10/06 03:30:18;;;;;;;9.32;5.95;;;9.40;99.90;;;;;;5068562;28;20761;-87
2023/10/06 03:32:48;;;;;;;9.18;4.97;;;9.90;99.90;;;;;;5063920;28;20209;-87
2023/10/06 03:35:38;;;;;;;7.07;5.05;;;9.90;99.90;;;;;;5082396;28;20185;-87
2023/10/06 03:38:27;;;;;;;6.13;5.15;;;9.40;99.90;;;;;;5085146;28;20207;-87
2023/10/06 03:43:41;;;;;;;8.18;4.60;;;9.80;99.90;;;;;;5067216;28;20301;-87
2023/10/06 03:46:10;;;;;;;5.25;4.63;;;9.30;99.90;;;;;;5066771;28;20726;-88
2023/10/06 03:48:37;;;;;;;6.40;5.00;;;9.00;99.90;;;;;;5061943;28;20212;-87
2023/10/06 03:51:04;;;;;;;9.23;4.72;;;8.80;99.90;;;;;;5077275;28;20185;-87
2023/10/06 03:53:29;;;;;;;6.00;4.50;;;9.00;99.90;;;;;;5099243;28;20208;-87
2023/10/06 03:55:57;;;;;;;5.67;5.03;;;9.20;99.90;;;;;;5068840;28;20667;-87
2023/10/06 03:58:27;;;;;;;10.13;5.30;;;9.20;99.90;;;;;;5066507;28;20301;-88
2023/10/06 04:00:52;;;;;;;8.15;5.28;;;9.50;99.90;;;;;;5065741;28;20231;-87
2023/10/06 04:03:18;;;;;;;10.10;5.80;;;9.20;99.90;;;;;;5066188;28;20613;-87
2023/10/06 04:05:45;;;;;;;7.23;5.13;;;9.50;99.90;;;;;;5063700;28;20187;-87
2023/10/06 04:08:14;;;;;;;8.70;5.20;;;9.20;99.90;;;;;;5069328;28;20984;-87
2023/10/06 04:10:42;;;;;;;9.05;4.85;;;9.40;99.90;;;;;;5066231;28;20200;-88
2023/10/06 04:13:08;;;;;;;9.50;6.50;;;9.10;99.90;;;;;;5068708;28;20205;-87
2023/10/06 04:15:43;;;;;;;9.00;6.10;;;9.70;99.90;;;;;;5061553;28;20253;-87
2023/10/06 04:18:10;;;;;;;8.55;5.15;;;9.90;99.90;;;;;;5071539;28;20201;-88
2023/10/06 04:20:40;;;;;;;5.90;5.30;;;10.00;99.90;;;;;;5063457;28;20188;-88
2023/10/06 04:23:07;;;;;;;8.38;5.95;;;9.50;99.90;;;;;;5066806;28;20208;-87
2023/10/06 04:25:37;;;;;;;9.98;4.90;;;9.60;99.90;;;;;;5068656;28;20674;-87
2023/10/06 04:28:14;;;;;;;9.20;5.55;;;9.30;99.90;;;;;;5076423;28;20225;-87
2023/10/06 04:30:44;;;;;;;9.50;6.72;;;9.60;99.90;;;;;;5088183;28;20197;-88
2023/10/06 04:33:11;;;;;;;7.75;5.65;;;9.50;99.90;;;;;;5075971;28;20770;-88
2023/10/06 04:35:40;;;;;;;8.20;5.63;;;9.80;99.90;;;;;;5060597;28;20197;-88
2023/10/06 04:38:12;;;;;;;10.05;6.10;;;9.80;99.90;;;;;;5060972;28;20198;-87
2023/10/06 04:40:39;;;;;;;8.98;5.85;;;9.70;99.90;;;;;;5068717;28;20500;-88
2023/10/06 04:43:04;;;;;;;7.90;5.40;;;9.80;99.90;;;;;;5069745;28;20202;-88
2023/10/06 04:45:32;;;;;;;8.37;5.27;;;9.90;99.90;;;;;;5066513;28;20186;-88
2023/10/06 04:48:00;;;;;;;11.27;5.93;;;9.30;99.90;;;;;;5065105;28;20732;-87
2023/10/06 04:50:27;;;;;;;8.73;6.35;;;9.30;99.90;;;;;;5066374;28;20188;-87
2023/10/06 04:52:54;;;;;;;7.70;6.57;;;9.80;99.90;;;;;;5065745;28;20245;-87
2023/10/06 04:55:20;;;;;;;8.63;5.53;;;9.80;99.90;;;;;;5065504;28;20185;-87
2023/10/06 04:57:47;;;;;;;8.23;6.10;;;9.40;99.90;;;;;;5064816;28;20928;-88
2023/10/06 05:00:15;;;;;;;10.15;6.50;;;9.30;99.90;;;;;;5071885;28;20181;-87
2023/10/06 05:02:44;;;;;;;9.40;6.57;;;9.40;99.90;;;;;;5064473;28;20207;-87
2023/10/06 05:05:11;;;;;;;7.80;5.30;;;9.80;99.90;;;;;;5049998;28;20204;-87
2023/10/06 05:07:38;;;;;;;9.33;6.97;;;10.10;99.90;;;;;;5064504;28;20269;-87
2023/10/06 05:10:13;;;;;;;7.22;6.00;;;9.90;99.90;;;;;;5066523;28;20517;-88
2023/10/06 05:12:39;;;;;;;10.05;6.20;;;9.50;99.90;;;;;;5064761;28;20198;-87
2023/10/06 05:15:07;;;;;;;7.87;6.03;;;9.60;99.90;;;;;;5068309;28;20558;-88
2023/10/06 05:17:34;;;;;;;9.10;6.72;;;9.70;99.90;;;;;;5064491;28;20219;-86
2023/10/06 05:20:03;;;;;;;8.60;6.60;;;9.70;99.90;;;;;;5068681;28;20179;-91
2023/10/06 05:22:28;;;;;;;8.70;7.00;;;9.50;99.90;;;;;;5073169;28;20214;-89
2023/10/06 05:24:54;;;;;;;8.53;6.70;;;9.50;99.90;;;;;;5083844;28;20194;-91
2023/10/06 05:27:21;;;;;;;10.23;7.40;;;9.40;99.90;;;;;;5084524;28;20186;-89
2023/10/06 05:29:46;;;;;;;10.52;7.70;;;9.60;99.90;;;;;;5078237;28;20190;-89
2023/10/06 05:32:13;;;;;;;8.30;6.43;;;9.70;99.90;;;;;;5070270;28;20208;-89
2023/10/06 05:34:40;;;;;;;13.25;6.22;;;9.90;99.90;;;;;;5079410;28;20183;-89
2023/10/06 05:37:08;;;;;;;11.13;7.20;;;9.70;99.90;;;;;;5061700;28;20735;-87
2023/10/06 05:39:34;;;;;;;7.25;6.22;;;10.40;99.90;;;;;;5066239;28;20219;-87
2023/10/06 05:42:02;;;;;;;9.52;6.88;;;9.60;99.90;;;;;;5065358;28;20255;-87
2023/10/06 05:44:28;;;;;;;9.38;6.40;;;10.10;99.90;;;;;;5067546;28;20231;-87
2023/10/06 05:46:54;;;;;;;9.70;6.00;;;9.60;99.90;;;;;;5069438;28;20182;-87
2023/10/06 05:49:21;;;;;;;7.55;6.40;;;10.00;99.90;;;;;;5068102;28;20332;-87
2023/10/06 05:51:49;;;;;;;8.90;6.60;;;9.50;99.90;;;;;;5065938;28;20193;-87
2023/10/06 05:54:21;;;;;;;9.50;6.80;;;10.00;99.90;;;;;;5059611;28;20190;-90
2023/10/06 05:56:53;;;;;;;11.30;6.57;;;9.60;99.90;;;;;;5061070;28;20262;-90
2023/10/06 05:59:22;;;;;;;9.00;6.65;;;10.00;99.90;;;;;;5071416;28;20201;-91
2023/10/06 06:02:02;;;;;;;8.77;6.45;;;9.70;99.90;;;;;;5074036;28;20198;-87
2023/10/06 06:04:28;;;;;;;9.05;6.72;;;9.80;99.90;;;;;;5086515;28;20250;-89
2023/10/06 06:06:57;;;;;;;9.10;6.97;;;9.90;99.90;;;;;;5086213;28;20190;-89
2023/10/06 06:09:24;;;;;;;9.68;7.15;;;10.40;99.90;;;;;;5080504;28;20450;-89
2023/10/06 06:11:50;;;;;;;9.52;6.75;;;9.80;99.90;;;;;;5063714;28;20187;-91
2023/10/06 06:14:15;;;;;;;11.00;6.90;;;9.70;99.90;;;;;;5071062;28;20252;-88
2023/10/06 06:16:44;;;;;;;7.87;6.77;;;9.90;99.90;;;;;;5076902;28;20460;-88
2023/10/06 06:19:11;;;;;;;8.32;7.20;;;9.80;99.90;;;;;;5066871;28;20288;-89
2023/10/06 06:21:38;;;;;;;10.48;6.80;;;9.80;99.90;;;;;;5072908;28;20236;-90
2023/10/06 06:24:06;;;;;;;11.10;6.72;;;10.00;99.90;;;;;;5085361;28;20218;-92
2023/10/06 06:26:32;;;;;;;9.38;6.70;;;10.10;99.90;;;;;;5087816;28;20198;-91
2023/10/06 06:29:02;;;;;;;11.48;7.30;;;10.00;99.90;;;;;;5088563;28;20190;-88
2023/10/06 06:31:32;;;;;;;9.32;6.13;;;10.10;99.90;;;;;;5073044;28;20174;-88
2023/10/06 06:34:04;;;;;;;8.02;6.60;;;9.90;99.90;;;;;;5071241;28;20203;-88
2023/10/06 06:36:32;;;;;;;12.48;7.50;;;9.70;99.90;;;;;;5082702;28;20378;-87
2023/10/06 06:38:58;;;;;;;10.18;6.43;;;10.50;99.90;;;;;;5067208;28;20814;-89
2023/10/06 06:41:27;;;;;;;10.40;7.03;;;10.00;99.90;;;;;;5073889;28;20240;-89
2023/10/06 06:43:58;;;;;;;10.50;6.88;;;10.40;99.90;;;;;;5068649;28;20493;-89
2023/10/06 06:46:26;;;;;;;11.98;7.10;;;10.30;99.90;;;;;;5062414;28;20285;-89
2023/10/06 06:48:52;;;;;;;7.90;7.10;;;10.60;99.90;;;;;;5063199;28;20265;-88
2023/10/06 06:51:18;;;;;;;10.00;7.23;;;10.40;99.90;;;;;;5068308;28;20219;-88
2023/10/06 06:53:45;;;;;;;9.93;7.05;;;10.50;99.90;;;;;;5069217;28;20851;-88
2023/10/06 06:56:11;;;;;;;11.75;8.10;;;10.60;99.90;;;;;;5066951;28;20547;-86
2023/10/06 06:58:37;;;;;;;10.37;7.13;;;10.40;99.90;;;;;;5068548;28;20323;-86
2023/10/06 07:01:05;;;;;;;11.88;7.43;;;10.70;99.90;;;;;;5070549;28;20183;-87
2023/10/06 07:03:31;;;;;;;13.68;7.97;;;10.70;99.90;;;;;;5084363;28;20220;-85
2023/10/06 07:05:57;;;;;;;17.73;8.13;;;11.20;99.90;;;;;;5071228;28;20819;-86
2023/10/06 07:08:23;;;;;;;11.17;8.37;;;11.50;99.90;;;;;;5083090;28;20191;-85
2023/10/06 07:10:53;;;;;;;9.18;6.57;;;10.50;99.90;;;;;;5087247;28;20184;-84
2023/10/06 07:13:22;;;;;;;7.93;5.82;;;11.60;99.90;;;;;;5086994;22;20217;-85
2023/10/06 07:15:54;;;;;;;12.05;7.65;;;13.40;99.90;;;;;;5070611;28;20195;-85
2023/10/06 07:18:22;;;;;;;11.13;7.63;;;12.20;99.90;;;;;;5074323;28;20212;-86
2023/10/06 07:20:48;;;;;;;9.25;7.70;;;10.90;99.90;;;;;;5075934;28;20180;-83
2023/10/06 07:23:13;;;;;;;13.35;9.07;;;11.50;99.90;;;;;;5071565;28;20315;-83
2023/10/06 07:25:39;;;;;;;10.80;8.40;;;11.70;99.90;;;;;;5075053;28;20693;-84
2023/10/06 07:28:07;;;;;;;10.00;8.27;;;11.70;99.90;;;;;;5073433;28;20198;-84
2023/10/06 07:30:34;;;;;;;9.88;7.57;;;11.90;99.90;;;;;;5072015;28;20239;-84
2023/10/06 07:33:02;;;;;;;11.68;7.20;;;12.50;99.90;;;;;;5067246;28;20231;-84
2023/10/06 07:35:51;;;;;;;10.75;7.80;;;12.10;99.90;;;;;;5071114;28;20188;-84
2023/10/06 07:38:18;;;;;;;12.27;8.00;;;12.60;99.90;;;;;;5051792;28;20687;-84
2023/10/06 07:40:44;;;;;;;10.70;8.15;;;12.50;99.90;;;;;;5068332;28;20177;-84
2023/10/06 07:43:10;;;;;;;7.82;7.13;;;13.00;99.90;;;;;;5070892;28;20204;-85
2023/10/06 07:45:36;;;;;;;12.88;7.78;;;12.80;99.90;;;;;;5066048;28;20653;-85
2023/10/06 07:48:06;;;;;;;9.85;7.47;;;12.60;99.90;;;;;;5061280;28;20181;-85
2023/10/06 07:50:33;;;;;;;9.50;7.75;;;12.70;99.90;;;;;;5073772;28;20250;-84
2023/10/06 07:53:00;;;;;;;10.45;7.65;;;13.10;99.90;;;;;;5068621;28;20201;-86
2023/10/06 07:55:26;;;;;;;10.02;8.80;;;13.50;99.90;;;;;;5064671;28;20239;-85
2023/10/06 07:57:51;;;;;;;10.50;7.60;;;13.40;99.90;;;;;;5068014;28;20200;-84
2023/10/06 08:00:27;;;;;;;12.50;7.80;;;13.50;99.90;;;;;;5075510;28;20279;-85
2023/10/06 08:02:54;;;;;;;16.50;12.68;;;13.30;99.90;;;;;;5077709;28;20201;-85
2023/10/06 08:05:20;;;;;;;8.45;6.85;;;13.70;99.90;;;;;;5079497;28;20180;-85
2023/10/06 08:07:45;;;;;;;9.93;6.85;;;14.00;99.90;;;;;;5080310;28;20192;-85
2023/10/06 08:10:15;;;;;;;12.40;8.30;;;13.90;99.90;;;;;;5072995;28;20184;-86
2023/10/06 08:12:50;;;;;;;10.93;7.25;;;14.40;99.90;;;;;;5068278;28;20200;-86
2023/10/06 08:15:21;;;;;;;9.15;8.00;;;14.50;99.90;;;;;;5070281;28;20200;-86
2023/10/06 08:17:50;;;;;;;9.55;7.05;;;13.90;99.90;;;;;;5079256;28;20187;-86
2023/10/06 08:20:16;;;;;;;9.70;7.63;;;14.60;99.90;;;;;;5073806;28;20253;-85
2023/10/06 08:22:46;;;;;;;11.32;7.60;;;14.50;99.90;;;;;;5067391;28;20197;-85
2023/10/06 08:25:16;;;;;;;7.63;6.65;;;14.70;99.90;;;;;;5076396;28;20185;-85
2023/10/06 08:27:43;;;;;;;9.30;6.97;;;15.10;99.90;;;;;;5075802;28;20173;-85
2023/10/06 08:30:16;;;;;;;8.38;6.75;;;15.00;99.90;;;;;;5070994;28;20188;-85
2023/10/06 08:32:54;;;;;;;9.13;6.97;;;15.30;99.90;;;;;;5068511;28;20213;-85
2023/10/06 08:35:20;;;;;;;9.60;6.55;;;15.30;99.90;;;;;;5067484;28;20189;-86
2023/10/06 08:37:47;;;;;;;8.75;6.93;;;15.50;99.90;;;;;;5069787;28;20664;-86
2023/10/06 08:40:19;;;;;;;10.60;6.30;;;15.60;99.90;;;;;;5065124;28;20189;-85
2023/10/06 08:42:53;;;;;;;8.15;6.20;;;15.60;99.90;;;;;;5072195;28;20209;-86
2023/10/06 08:45:21;;;;;;;8.70;5.80;;;15.70;99.90;;;;;;5065110;28;20189;-86
2023/10/06 08:47:52;;;;;;;9.25;6.15;;;15.90;99.90;;;;;;5069748;28;20181;-85
2023/10/06 08:50:24;;;;;;;8.50;6.68;;;15.60;99.90;;;;;;5071534;28;20602;-85
2023/10/06 08:52:53;;;;;;;9.50;5.38;;;16.00;99.90;;;;;;5068691;28;20213;-85
2023/10/06 08:55:20;;;;;;;7.90;6.22;;;16.10;99.90;;;;;;5076814;28;20667;-85
2023/10/06 08:57:47;;;;;;;10.07;7.60;;;16.10;99.90;;;;;;5070396;28;20189;-83
2023/10/06 09:00:17;;;;;;;9.50;6.53;;;16.80;99.90;;;;;;5072770;28;20182;-84
2023/10/06 09:02:47;;;;;;;7.00;5.63;;;16.50;99.90;;;;;;5071316;28;20586;-84
2023/10/06 09:05:15;;;;;;;6.38;5.32;;;16.50;99.90;;;;;;5070919;28;20226;-84
2023/10/06 09:07:56;;;;;;;6.43;5.78;;;17.00;99.90;;;;;;5070993;28;20184;-84
2023/10/06 09:10:22;;;;;;;7.03;5.45;;;16.70;99.70;;;;;;5069957;28;20196;-86
2023/10/06 09:13:05;;;;;;;6.22;5.63;;;16.60;99.70;;;;;;5067308;28;20201;-86
2023/10/06 09:15:32;;;;;;;6.60;5.55;;;17.00;99.90;;;;;;5066511;28;20196;-85
2023/10/06 09:17:59;;;;;;;6.93;5.70;;;16.40;99.00;;;;;;5068479;28;20212;-90
2023/10/06 09:20:31;;;;;;;10.80;6.43;;;17.40;99.20;;;;;;5068522;28;20291;-91
2023/10/06 09:23:03;;;;;;;12.18;8.80;;;17.20;98.70;;;;;;5063409;28;20200;-91
2023/10/06 09:25:42;;;;;;;8.88;6.82;;;17.30;98.50;;;;;;5065817;28;20676;-91
2023/10/06 09:28:13;;;;;;;7.55;6.05;;;17.50;98.60;;;;;;5066781;28;20617;-89
2023/10/06 09:31:01;;;;;;;6.35;5.20;;;17.20;98.40;;;;;;5053000;28;20258;-90
2023/10/06 09:33:36;;;;;;;10.77;7.18;;;17.40;98.30;;;;;;5067944;28;20201;-90
2023/10/06 09:36:11;;;;;;;8.00;6.60;;;17.00;98.00;;;;;;5064881;28;20201;-90
2023/10/06 09:38:38;;;;;;;9.05;6.95;;;17.80;98.10;;;;;;5062150;28;20196;-88
2023/10/06 09:41:07;;;;;;;9.27;6.28;;;18.80;96.90;;;;;;5064474;28;20227;-89
2023/10/06 09:43:35;;;;;;;8.02;6.50;;;19.30;95.00;;;;;;5063049;28;20566;-89
2023/10/06 09:46:14;;;;;;;8.57;5.90;;;19.90;94.00;;;;;;5065210;28;20200;-89
2023/10/06 09:48:45;;;;;;;7.47;5.90;;;20.20;93.40;;;;;;5083311;28;20181;-89
2023/10/06 09:51:12;;;;;;;7.57;5.90;;;19.40;93.50;;;;;;5066581;28;20190;-91
2023/10/06 09:53:47;;;;;;;8.20;5.90;;;19.40;94.00;;;;;;5064072;28;20265;-89
2023/10/06 09:56:16;;;;;;;7.25;5.55;;;19.70;94.20;;;;;;5063096;28;20687;-89
2023/10/06 09:58:48;;;;;;;9.13;6.35;;;19.70;94.10;;;;;;5076728;28;20222;-88
2023/10/06 10:01:15;;;;;;;8.77;5.65;;;19.50;94.50;;;;;;5093493;28;21257;-87
2023/10/06 10:03:44;;;;;;;11.52;7.57;;;19.80;94.60;;;;;;5088143;28;20192;-89
2023/10/06 10:06:10;;;;;;;9.55;6.10;;;19.70;94.80;;;;;;5077322;28;20184;-90
2023/10/06 10:08:39;;;;;;;8.50;5.93;;;20.20;94.50;;;;;;5072190;28;20230;-90
2023/10/06 10:11:15;;;;;;;7.63;5.88;;;19.90;94.30;;;;;;5079079;28;20178;-90
2023/10/06 10:14:10;;;;;;;7.75;5.57;;;19.50;93.60;;;;;;5081571;28;20216;-91
2023/10/06 10:16:48;;;;;;;5.97;4.70;;;19.20;93.90;;;;;;5070541;28;20277;-91
2023/10/06 10:19:18;;;;;;;8.60;6.05;;;19.60;94.20;;;;;;5076078;28;20280;-90
2023/10/06 10:21:45;;;;;;;9.10;6.30;;;20.00;94.30;;;;;;5072244;28;20220;-90
2023/10/06 10:24:14;;;;;;;8.85;6.80;;;19.40;94.00;;;;;;5056778;28;20189;-89
2023/10/06 10:26:45;;;;;;;8.95;5.95;;;19.50;94.20;;;;;;5077625;28;20242;-89
2023/10/06 10:29:17;;;;;;;8.40;5.85;;;19.90;94.00;;;;;;5076435;28;20825;-89
2023/10/06 10:31:44;;;;;;;9.93;5.80;;;19.90;93.70;;;;;;5076856;28;20261;-89
2023/10/06 10:34:23;;;;;;;7.88;6.03;;;20.20;93.70;;;;;;5085439;28;20185;-89
2023/10/06 10:37:12;;;;;;;8.60;6.25;;;20.30;93.40;;;;;;5078430;28;20188;-89
2023/10/06 10:39:49;;;;;;;6.72;5.63;;;20.20;93.60;;;;;;5065740;28;20559;-89
2023/10/06 10:42:38;;;;;;;8.15;6.00;;;20.10;93.70;;;;;;5070881;28;20209;-89
2023/10/06 10:45:28;;;;;;;10.48;6.28;;;20.00;93.80;;;;;;5071683;28;20251;-90
2023/10/06 10:47:57;;;;;;;8.75;6.53;;;20.10;93.20;;;;;;5086141;28;20184;-89
2023/10/06 10:50:26;;;;;;;6.28;5.53;;;20.10;93.20;;;;;;5078073;28;20185;-89
2023/10/06 10:52:53;;;;;;;8.20;6.20;;;21.20;93.40;;;;;;5098566;28;20196;-90
2023/10/06 10:55:23;;;;;;;7.10;5.73;;;22.70;91.10;;;;;;5084286;28;20465;-90
2023/10/06 10:57:50;;;;;;;7.47;5.40;;;24.10;85.40;;;;;;5087552;28;20431;-90
2023/10/06 11:00:20;;;;;;;7.47;5.23;;;23.90;84.20;;;;;;5079674;28;20529;-90
2023/10/06 11:02:48;;;;;;;7.53;5.80;;;23.40;84.10;;;;;;5071936;28;20489;-89
2023/10/06 11:05:19;;;;;;;8.07;6.60;;;23.30;85.80;;;;;;5080633;28;20442;-90
2023/10/06 11:08:02;;;;;;;8.27;5.57;;;22.90;86.00;;;;;;5071289;28;20446;-89
2023/10/06 11:10:28;;;;;;;8.50;6.40;;;22.60;86.10;;;;;;5072400;28;20489;-90
2023/10/06 11:13:15;;;;;;;7.23;6.47;;;23.40;87.60;;;;;;5070699;28;20475;-89
2023/10/06 11:15:42;;;;;;;6.63;5.50;;;22.20;87.10;;;;;;5068941;28;20451;-89
2023/10/06 11:18:09;;;;;;;7.30;5.53;;;22.40;89.00;;;;;;5075551;28;20536;-89
2023/10/06 11:20:38;;;;;;;9.83;8.83;;;22.80;89.30;;;;;;5064742;28;20440;-89
2023/10/06 11:23:04;;;;;;;7.40;6.70;;;21.90;89.20;;;;;;5074024;28;20960;-90
2023/10/06 11:25:33;;;;;;;7.60;5.70;;;22.20;89.40;;;;;;5074851;28;20443;-89
2023/10/06 11:28:02;;;;;;;5.93;5.03;;;23.10;88.90;;;;;;5064633;28;20255;-89
2023/10/06 11:30:29;;;;;;;7.47;5.53;;;22.40;88.70;;;;;;5083990;28;20431;-89
2023/10/06 11:32:59;;;;;;;6.87;5.40;;;22.40;89.10;;;;;;5081561;28;20512;-89
2023/10/06 11:35:24;;;;;;;8.98;6.07;;;22.20;89.90;;;;;;5083868;28;20495;-89
2023/10/06 11:37:53;;;;;;;9.40;5.80;;;22.00;90.20;;;;;;5078749;28;20221;-89
2023/10/06 11:40:21;;;;;;;7.30;5.23;;;22.10;90.10;;;;;;5071080;28;20457;-89
2023/10/06 11:42:47;;;;;;;9.15;5.72;;;21.90;89.50;;;;;;5070514;28;20459;-89
2023/10/06 11:45:24;;;;;;;9.43;5.60;;;22.30;90.50;;;;;;5073000;28;20185;-89
2023/10/06 11:47:52;;;;;;;8.13;5.25;;;21.50;90.40;;;;;;5076124;28;20262;-89
2023/10/06 11:50:23;;;;;;;8.63;5.05;;;21.10;90.50;;;;;;5073278;28;20610;-89
2023/10/06 11:52:49;;;;;;;7.22;5.43;;;21.50;90.80;;;;;;5083558;28;20192;-89
2023/10/06 11:55:25;;;;;;;6.60;5.63;;;21.10;91.20;;;;;;5085084;28;20249;-89
2023/10/06 11:57:51;;;;;;;7.03;5.85;;;20.80;91.30;;;;;;5092505;28;20466;-89
2023/10/06 12:00:18;;;;;;;7.90;5.95;;;20.80;91.70;;;;;;5083639;28;20195;-89
2023/10/06 12:02:50;;;;;;;9.63;5.70;;;20.80;91.50;;;;;;5086755;28;20198;-89
2023/10/06 12:05:22;;;;;;;6.82;4.97;;;20.80;91.20;;;;;;5072447;28;20199;-89
2023/10/06 12:07:49;;;;;;;7.50;4.50;;;20.80;90.80;;;;;;5077067;28;20174;-89
2023/10/06 12:10:17;;;;;;;6.85;5.07;;;20.80;90.80;;;;;;5068058;28;20185;-89
2023/10/06 12:12:45;;;;;;;10.05;6.32;;;21.00;91.10;;;;;;5065914;28;20551;-89
2023/10/06 12:15:13;;;;;;;9.27;5.80;;;20.60;91.30;;;;;;5054142;28;20256;-89
2023/10/06 12:17:39;;;;;;;7.38;5.15;;;20.80;91.40;;;;;;5062109;28;20224;-89
2023/10/06 12:20:08;;;;;;;9.37;5.70;;;20.70;91.20;;;;;;5071633;28;20216;-88
2023/10/06 12:22:33;;;;;;;8.57;5.45;;;20.80;90.90;;;;;;5065918;28;20197;-89
2023/10/06 12:24:59;;;;;;;7.50;5.53;;;20.80;90.60;;;;;;5072238;28;20520;-89
2023/10/06 12:27:27;;;;;;;9.80;5.60;;;21.20;90.80;;;;;;5066086;28;20184;-89
2023/10/06 12:29:55;;;;;;;6.55;5.05;;;21.20;91.00;;;;;;5067401;28;20190;-90
2023/10/06 12:32:21;;;;;;;7.07;5.40;;;21.40;91.10;;;;;;5072004;28;20217;-90
2023/10/06 12:34:48;;;;;;;6.57;5.53;;;20.90;90.10;;;;;;5069244;28;20223;-88
2023/10/06 12:37:15;;;;;;;7.72;5.60;;;21.00;90.40;;;;;;5076543;28;20206;-87
2023/10/06 12:39:45;;;;;;;6.18;4.57;;;21.40;90.20;;;;;;5087791;28;20217;-87
2023/10/06 12:42:11;;;;;;;7.00;4.97;;;21.50;90.20;;;;;;5067931;28;20201;-88
2023/10/06 12:44:42;;;;;;;7.57;4.75;;;21.10;89.60;;;;;;5078579;28;20192;-92
2023/10/06 12:47:11;;;;;;;7.38;5.85;;;21.50;89.40;;;;;;5090091;28;20251;-90
2023/10/06 12:49:43;;;;;;;8.35;6.80;;;21.20;88.50;;;;;;5072811;28;20199;-90
2023/10/06 12:52:09;;;;;;;9.70;5.97;;;21.50;89.90;;;;;;5063832;28;20853;-87
2023/10/06 12:54:35;;;;;;;7.95;6.45;;;21.50;87.50;;;;;;5086305;28;20173;-89
2023/10/06 12:57:01;;;;;;;7.43;5.00;;;21.30;87.30;;;;;;5086180;28;20245;-90
2023/10/06 12:59:26;;;;;;;8.37;5.30;;;21.10;87.40;;;;;;5079463;28;20462;-91
2023/10/06 13:01:52;;;;;;;7.23;4.83;;;21.10;88.80;;;;;;5083036;28;20169;-91
2023/10/06 13:04:17;;;;;;;8.50;5.30;;;21.40;87.60;;;;;;5067004;28;20188;-90
2023/10/06 13:06:47;;;;;;;6.90;5.17;;;21.60;87.90;;;;;;5066153;28;20186;-91